sensor_id;sensor_type;location;lat;lon;timestamp;temperature;humidity
20712;DHT22;10517;50.742;4.224;2022-12-18T00:02:22;-4.50;99.90
20712;DHT22;10517;50.742;4.224;2022-12-18T00:04:47;-4.50;99.90
20712;DHT22;10517;50.742;4.224;2022-12-18T00:07:13;-4.50;99.90
20712;DHT22;10517;50.742;4.224;2022-12-18T00:09:39;-4.50;99.90
20712;DHT22;10517;50.742;4.224;2022-12-18T00:12:04;-4.50;99.90
20712;DHT22;10517;50.742;4.224;2022-12-18T00:14:30;-4.60;99.90
20712;DHT22;10517;50.742;4.224;2022-12-18T00:16:56;-4.60;99.90
20712;DHT22;10517;50.742;4.224;2022-12-18T00:19:23;-4.60;99.90
20712;DHT22;10517;50.742;4.224;2022-12-18T00:21:49;-4.60;99.90
20712;DHT22;10517;50.742;4.224;2022-12-18T00:24:14;-4.60;99.90
20712;DHT22;10517;50.742;4.224;2022-12-18T00:26:40;-4.60;99.90
20712;DHT22;10517;50.742;4.224;2022-12-18T00:29:13;-4.70;99.90
20712;DHT22;10517;50.742;4.224;2022-12-18T00:31:40;-4.70;99.90
20712;DHT22;10517;50.742;4.224;2022-12-18T00:34:06;-4.70;99.90
20712;DHT22;10517;50.742;4.224;2022-12-18T00:36:33;-4.70;99.90
20712;DHT22;10517;50.742;4.224;2022-12-18T00:39:00;-4.70;99.90
20712;DHT22;10517;50.742;4.224;2022-12-18T00:41:27;-4.70;99.90
20712;DHT22;10517;50.742;4.224;2022-12-18T00:44:13;-4.70;99.90
20712;DHT22;10517;50.742;4.224;2022-12-18T00:46:39;-4.80;99.90
20712;DHT22;10517;50.742;4.224;2022-12-18T00:49:06;-4.90;99.90
20712;DHT22;10517;50.742;4.224;2022-12-18T00:51:32;-4.80;99.90
20712;DHT22;10517;50.742;4.224;2022-12-18T00:53:58;-4.80;99.90
20712;DHT22;10517;50.742;4.224;2022-12-18T00:56:24;-4.80;99.90
20712;DHT22;10517;50.742;4.224;2022-12-18T00:58:49;-4.80;99.90
20712;DHT22;10517;50.742;4.224;2022-12-18T01:01:16;-4.70;99.90
20712;DHT22;10517;50.742;4.224;2022-12-18T01:03:41;-4.70;99.90
20712;DHT22;10517;50.742;4.224;2022-12-18T01:06:09;-4.70;99.90
20712;DHT22;10517;50.742;4.224;2022-12-18T01:08:35;-4.60;99.90
20712;DHT22;10517;50.742;4.224;2022-12-18T01:11:10;-4.60;99.90
20712;DHT22;10517;50.742;4.224;2022-12-18T01:13:37;-4.60;99.90
20712;DHT22;10517;50.742;4.224;2022-12-18T01:16:03;-4.60;99.90
20712;DHT22;10517;50.742;4.224;2022-12-18T01:18:28;-4.60;99.90
20712;DHT22;10517;50.742;4.224;2022-12-18T01:20:54;-4.60;99.90
20712;DHT22;10517;50.742;4.224;2022-12-18T01:23:20;-4.60;99.90
20712;DHT22;10517;50.742;4.224;2022-12-18T01:25:45;-4.60;99.90
20712;DHT22;10517;50.742;4.224;2022-12-18T01:28:11;-4.60;99.90
20712;DHT22;10517;50.742;4.224;2022-12-18T01:30:36;-4.60;99.90
20712;DHT22;10517;50.742;4.224;2022-12-18T01:33:04;-4.60;99.90
20712;DHT22;10517;50.742;4.224;2022-12-18T01:35:30;-4.70;99.90
20712;DHT22;10517;50.742;4.224;2022-12-18T01:37:55;-4.70;99.90
20712;DHT22;10517;50.742;4.224;2022-12-18T01:40:21;-4.80;99.90
20712;DHT22;10517;50.742;4.224;2022-12-18T01:42:51;-4.80;99.90
20712;DHT22;10517;50.742;4.224;2022-12-18T01:45:28;-5.00;99.90
20712;DHT22;10517;50.742;4.224;2022-12-18T01:48:00;-5.00;99.90
20712;DHT22;10517;50.742;4.224;2022-12-18T01:53:18;-5.00;99.90
20712;DHT22;10517;50.742;4.224;2022-12-18T01:55:49;-5.00;99.90
20712;DHT22;10517;50.742;4.224;2022-12-18T01:58:16;-5.00;99.90
20712;DHT22;10517;50.742;4.224;2022-12-18T02:00:42;-5.10;99.90
20712;DHT22;10517;50.742;4.224;2022-12-18T02:03:08;-5.10;99.90
20712;DHT22;10517;50.742;4.224;2022-12-18T02:11:08;-5.20;99.90
20712;DHT22;10517;50.742;4.224;2022-12-18T02:16:28;-5.20;99.90
20712;DHT22;10517;50.742;4.224;2022-12-18T02:18:59;-5.20;99.90
20712;DHT22;10517;50.742;4.224;2022-12-18T02:21:46;-5.20;99.90
20712;DHT22;10517;50.742;4.224;2022-12-18T02:27:10;-5.20;99.90
20712;DHT22;10517;50.742;4.224;2022-12-18T02:29:53;-5.20;99.90
20712;DHT22;10517;50.742;4.224;2022-12-18T02:32:28;-5.30;99.90
20712;DHT22;10517;50.742;4.224;2022-12-18T02:34:57;-5.20;99.90
20712;DHT22;10517;50.742;4.224;2022-12-18T02:37:25;-5.20;99.90
20712;DHT22;10517;50.742;4.224;2022-12-18T02:39:53;-5.20;99.90
20712;DHT22;10517;50.742;4.224;2022-12-18T02:42:20;-5.30;99.90
20712;DHT22;10517;50.742;4.224;2022-12-18T02:44:48;-5.40;99.90
20712;DHT22;10517;50.742;4.224;2022-12-18T02:47:16;-5.40;99.90
20712;DHT22;10517;50.742;4.224;2022-12-18T03:01:10;-5.60;99.90
20712;DHT22;10517;50.742;4.224;2022-12-18T03:03:55;-5.60;99.90
20712;DHT22;10517;50.742;4.224;2022-12-18T03:06:25;-5.60;99.90
20712;DHT22;10517;50.742;4.224;2022-12-18T03:08:58;-5.60;99.90
20712;DHT22;10517;50.742;4.224;2022-12-18T03:11:26;-5.60;99.90
20712;DHT22;10517;50.742;4.224;2022-12-18T03:14:13;-5.60;99.90
20712;DHT22;10517;50.742;4.224;2022-12-18T03:16:42;-5.60;99.90
20712;DHT22;10517;50.742;4.224;2022-12-18T03:19:13;-5.50;99.90
20712;DHT22;10517;50.742;4.224;2022-12-18T03:21:49;-5.50;99.90
20712;DHT22;10517;50.742;4.224;2022-12-18T03:24:17;-5.50;99.90
20712;DHT22;10517;50.742;4.224;2022-12-18T03:26:46;-5.60;99.90
20712;DHT22;10517;50.742;4.224;2022-12-18T03:29:18;-5.60;99.90
20712;DHT22;10517;50.742;4.224;2022-12-18T03:31:51;-5.60;99.90
20712;DHT22;10517;50.742;4.224;2022-12-18T03:34:31;-5.70;99.90
20712;DHT22;10517;50.742;4.224;2022-12-18T03:36:57;-5.70;99.90
20712;DHT22;10517;50.742;4.224;2022-12-18T03:39:24;-5.80;99.90
20712;DHT22;10517;50.742;4.224;2022-12-18T03:41:57;-5.80;99.90
20712;DHT22;10517;50.742;4.224;2022-12-18T03:44:40;-5.60;99.90
20712;DHT22;10517;50.742;4.224;2022-12-18T03:47:17;-5.60;99.90
20712;DHT22;10517;50.742;4.224;2022-12-18T03:50:03;-5.50;99.90
20712;DHT22;10517;50.742;4.224;2022-12-18T03:52:39;-5.50;99.90
20712;DHT22;10517;50.742;4.224;2022-12-18T03:55:09;-5.50;99.90
20712;DHT22;10517;50.742;4.224;2022-12-18T03:57:35;-5.40;99.90
20712;DHT22;10517;50.742;4.224;2022-12-18T04:00:11;-5.40;99.90
20712;DHT22;10517;50.742;4.224;2022-12-18T04:02:41;-5.40;99.90
20712;DHT22;10517;50.742;4.224;2022-12-18T04:05:09;-5.40;99.90
20712;DHT22;10517;50.742;4.224;2022-12-18T04:07:36;-5.40;99.90
20712;DHT22;10517;50.742;4.224;2022-12-18T04:10:04;-5.40;99.90
20712;DHT22;10517;50.742;4.224;2022-12-18T04:12:31;-5.40;99.90
20712;DHT22;10517;50.742;4.224;2022-12-18T04:14:57;-5.40;99.90
20712;DHT22;10517;50.742;4.224;2022-12-18T04:17:22;-5.50;99.90
20712;DHT22;10517;50.742;4.224;2022-12-18T04:19:49;-5.50;99.90
20712;DHT22;10517;50.742;4.224;2022-12-18T04:22:14;-5.50;99.90
20712;DHT22;10517;50.742;4.224;2022-12-18T04:24:40;-5.50;99.90
20712;DHT22;10517;50.742;4.224;2022-12-18T04:27:06;-5.50;99.90
20712;DHT22;10517;50.742;4.224;2022-12-18T04:29:32;-5.50;99.90
20712;DHT22;10517;50.742;4.224;2022-12-18T04:31:57;-5.50;99.90
20712;DHT22;10517;50.742;4.224;2022-12-18T04:34:23;-5.50;99.90
20712;DHT22;10517;50.742;4.224;2022-12-18T04:36:48;-5.50;99.90
20712;DHT22;10517;50.742;4.224;2022-12-18T04:39:17;-5.60;99.90
20712;DHT22;10517;50.742;4.224;2022-12-18T04:41:43;-5.60;99.90
20712;DHT22;10517;50.742;4.224;2022-12-18T04:44:09;-5.50;99.90
20712;DHT22;10517;50.742;4.224;2022-12-18T04:46:34;-5.60;99.90
20712;DHT22;10517;50.742;4.224;2022-12-18T04:49:00;-5.60;99.90
20712;DHT22;10517;50.742;4.224;2022-12-18T04:51:25;-5.50;99.90
20712;DHT22;10517;50.742;4.224;2022-12-18T04:53:51;-5.50;99.90
20712;DHT22;10517;50.742;4.224;2022-12-18T04:56:16;-5.50;99.90
20712;DHT22;10517;50.742;4.224;2022-12-18T04:58:43;-5.50;99.90
20712;DHT22;10517;50.742;4.224;2022-12-18T05:01:10;-5.50;99.90
20712;DHT22;10517;50.742;4.224;2022-12-18T05:03:36;-5.50;99.90
20712;DHT22;10517;50.742;4.224;2022-12-18T05:06:03;-5.50;99.90
20712;DHT22;10517;50.742;4.224;2022-12-18T05:08:28;-5.50;99.90
20712;DHT22;10517;50.742;4.224;2022-12-18T05:11:03;-5.40;99.90
20712;DHT22;10517;50.742;4.224;2022-12-18T05:13:30;-5.40;99.90
20712;DHT22;10517;50.742;4.224;2022-12-18T05:15:56;-5.40;99.90
20712;DHT22;10517;50.742;4.224;2022-12-18T05:18:25;-5.30;99.90
20712;DHT22;10517;50.742;4.224;2022-12-18T05:20:52;-5.30;99.90
20712;DHT22;10517;50.742;4.224;2022-12-18T05:23:18;-5.20;99.90
20712;DHT22;10517;50.742;4.224;2022-12-18T05:25:51;-5.20;99.90
20712;DHT22;10517;50.742;4.224;2022-12-18T05:28:16;-5.10;99.90
20712;DHT22;10517;50.742;4.224;2022-12-18T05:30:42;-5.10;99.90
20712;DHT22;10517;50.742;4.224;2022-12-18T05:33:07;-5.10;99.90
20712;DHT22;10517;50.742;4.224;2022-12-18T05:35:33;-5.10;99.90
20712;DHT22;10517;50.742;4.224;2022-12-18T05:37:59;-5.10;99.90
20712;DHT22;10517;50.742;4.224;2022-12-18T05:40:24;-5.10;99.90
20712;DHT22;10517;50.742;4.224;2022-12-18T05:42:50;-5.10;99.90
20712;DHT22;10517;50.742;4.224;2022-12-18T05:45:16;-5.00;99.90
20712;DHT22;10517;50.742;4.224;2022-12-18T05:47:41;-5.00;99.90
20712;DHT22;10517;50.742;4.224;2022-12-18T05:50:07;-5.10;99.90
20712;DHT22;10517;50.742;4.224;2022-12-18T05:52:33;-5.00;99.90
20712;DHT22;10517;50.742;4.224;2022-12-18T05:54:58;-5.10;99.90
20712;DHT22;10517;50.742;4.224;2022-12-18T05:57:24;-5.10;99.90
20712;DHT22;10517;50.742;4.224;2022-12-18T05:59:50;-5.20;99.90
20712;DHT22;10517;50.742;4.224;2022-12-18T06:02:15;-5.20;99.90
20712;DHT22;10517;50.742;4.224;2022-12-18T06:04:41;-5.20;99.90
20712;DHT22;10517;50.742;4.224;2022-12-18T06:07:06;-5.30;99.90
20712;DHT22;10517;50.742;4.224;2022-12-18T06:09:32;-5.30;99.90
20712;DHT22;10517;50.742;4.224;2022-12-18T06:11:58;-5.30;99.90
20712;DHT22;10517;50.742;4.224;2022-12-18T06:14:23;-5.40;99.90
20712;DHT22;10517;50.742;4.224;2022-12-18T06:16:50;-5.30;99.90
20712;DHT22;10517;50.742;4.224;2022-12-18T06:19:17;-5.40;99.90
20712;DHT22;10517;50.742;4.224;2022-12-18T06:21:43;-5.40;99.90
20712;DHT22;10517;50.742;4.224;2022-12-18T06:24:09;-5.40;99.90
20712;DHT22;10517;50.742;4.224;2022-12-18T06:26:37;-5.50;99.90
20712;DHT22;10517;50.742;4.224;2022-12-18T06:29:03;-5.50;99.90
20712;DHT22;10517;50.742;4.224;2022-12-18T06:31:29;-5.50;99.90
20712;DHT22;10517;50.742;4.224;2022-12-18T06:33:55;-5.50;99.90
20712;DHT22;10517;50.742;4.224;2022-12-18T06:36:20;-5.50;99.90
20712;DHT22;10517;50.742;4.224;2022-12-18T06:38:46;-5.50;99.90
20712;DHT22;10517;50.742;4.224;2022-12-18T06:41:20;-5.40;99.90
20712;DHT22;10517;50.742;4.224;2022-12-18T06:43:46;-5.40;99.90
20712;DHT22;10517;50.742;4.224;2022-12-18T06:46:12;-5.40;99.90
20712;DHT22;10517;50.742;4.224;2022-12-18T06:48:38;-5.30;99.90
20712;DHT22;10517;50.742;4.224;2022-12-18T06:51:04;-5.30;99.90
20712;DHT22;10517;50.742;4.224;2022-12-18T06:53:30;-5.30;99.90
20712;DHT22;10517;50.742;4.224;2022-12-18T06:56:04;-5.40;99.90
20712;DHT22;10517;50.742;4.224;2022-12-18T06:58:29;-5.30;99.90
20712;DHT22;10517;50.742;4.224;2022-12-18T07:01:05;-5.40;99.90
20712;DHT22;10517;50.742;4.224;2022-12-18T07:03:31;-5.40;99.90
20712;DHT22;10517;50.742;4.224;2022-12-18T07:05:56;-5.40;99.90
20712;DHT22;10517;50.742;4.224;2022-12-18T07:08:22;-5.40;99.90
20712;DHT22;10517;50.742;4.224;2022-12-18T07:10:47;-5.40;99.90
20712;DHT22;10517;50.742;4.224;2022-12-18T07:13:15;-5.40;99.90
20712;DHT22;10517;50.742;4.224;2022-12-18T07:15:40;-5.40;99.90
20712;DHT22;10517;50.742;4.224;2022-12-18T07:18:06;-5.40;99.90
20712;DHT22;10517;50.742;4.224;2022-12-18T07:20:31;-5.40;99.90
20712;DHT22;10517;50.742;4.224;2022-12-18T07:22:57;-5.60;99.90
20712;DHT22;10517;50.742;4.224;2022-12-18T07:25:23;-5.60;99.90
20712;DHT22;10517;50.742;4.224;2022-12-18T07:27:48;-5.60;99.90
20712;DHT22;10517;50.742;4.224;2022-12-18T07:30:14;-5.60;99.90
20712;DHT22;10517;50.742;4.224;2022-12-18T07:32:39;-5.60;99.90
20712;DHT22;10517;50.742;4.224;2022-12-18T07:35:05;-5.50;99.90
20712;DHT22;10517;50.742;4.224;2022-12-18T07:37:31;-5.40;99.90
20712;DHT22;10517;50.742;4.224;2022-12-18T07:39:56;-5.20;99.90
20712;DHT22;10517;50.742;4.224;2022-12-18T07:42:22;-5.10;99.90
20712;DHT22;10517;50.742;4.224;2022-12-18T07:44:57;-5.00;99.90
20712;DHT22;10517;50.742;4.224;2022-12-18T07:47:23;-4.80;99.90
20712;DHT22;10517;50.742;4.224;2022-12-18T07:49:49;-4.60;99.90
20712;DHT22;10517;50.742;4.224;2022-12-18T07:52:14;-4.30;99.90
20712;DHT22;10517;50.742;4.224;2022-12-18T07:54:40;-4.20;99.90
20712;DHT22;10517;50.742;4.224;2022-12-18T07:57:07;-4.20;99.90
20712;DHT22;10517;50.742;4.224;2022-12-18T07:59:33;-4.30;99.90
20712;DHT22;10517;50.742;4.224;2022-12-18T08:01:58;-4.20;99.90
20712;DHT22;10517;50.742;4.224;2022-12-18T08:04:25;-4.20;99.90
20712;DHT22;10517;50.742;4.224;2022-12-18T08:06:50;-3.90;99.90
20712;DHT22;10517;50.742;4.224;2022-12-18T08:09:16;-3.80;99.90
20712;DHT22;10517;50.742;4.224;2022-12-18T08:11:42;-3.90;99.90
20712;DHT22;10517;50.742;4.224;2022-12-18T08:14:08;-3.70;99.90
20712;DHT22;10517;50.742;4.224;2022-12-18T08:16:33;-3.60;99.90
20712;DHT22;10517;50.742;4.224;2022-12-18T08:18:59;-3.20;99.90
20712;DHT22;10517;50.742;4.224;2022-12-18T08:21:27;-3.10;99.90
20712;DHT22;10517;50.742;4.224;2022-12-18T08:23:55;-3.10;99.90
20712;DHT22;10517;50.742;4.224;2022-12-18T08:26:22;-3.00;99.90
20712;DHT22;10517;50.742;4.224;2022-12-18T08:28:49;-2.90;99.90
20712;DHT22;10517;50.742;4.224;2022-12-18T08:31:15;-2.70;99.90
20712;DHT22;10517;50.742;4.224;2022-12-18T08:33:41;-2.70;99.90
20712;DHT22;10517;50.742;4.224;2022-12-18T08:36:07;-2.80;99.90
20712;DHT22;10517;50.742;4.224;2022-12-18T08:38:33;-2.70;99.90
20712;DHT22;10517;50.742;4.224;2022-12-18T08:41:03;-2.50;99.90
20712;DHT22;10517;50.742;4.224;2022-12-18T08:43:29;-2.30;99.90
20712;DHT22;10517;50.742;4.224;2022-12-18T08:46:13;-2.20;99.90
20712;DHT22;10517;50.742;4.224;2022-12-18T08:48:39;-2.20;99.90
20712;DHT22;10517;50.742;4.224;2022-12-18T08:51:05;-2.10;99.90
20712;DHT22;10517;50.742;4.224;2022-12-18T08:53:30;-2.00;99.90
20712;DHT22;10517;50.742;4.224;2022-12-18T08:55:56;-1.90;99.90
20712;DHT22;10517;50.742;4.224;2022-12-18T08:58:23;-1.90;99.90
20712;DHT22;10517;50.742;4.224;2022-12-18T09:00:48;-1.60;99.90
20712;DHT22;10517;50.742;4.224;2022-12-18T09:03:15;-1.50;99.90
20712;DHT22;10517;50.742;4.224;2022-12-18T09:05:42;-1.40;99.90
20712;DHT22;10517;50.742;4.224;2022-12-18T09:08:07;-1.20;99.90
20712;DHT22;10517;50.742;4.224;2022-12-18T09:10:33;-1.00;99.90
20712;DHT22;10517;50.742;4.224;2022-12-18T09:12:59;-0.90;99.90
20712;DHT22;10517;50.742;4.224;2022-12-18T09:15:25;-0.70;99.90
20712;DHT22;10517;50.742;4.224;2022-12-18T09:17:50;-0.60;99.90
20712;DHT22;10517;50.742;4.224;2022-12-18T09:20:18;-0.60;99.90
20712;DHT22;10517;50.742;4.224;2022-12-18T09:22:44;-0.60;99.90
20712;DHT22;10517;50.742;4.224;2022-12-18T09:25:10;-0.50;99.90
20712;DHT22;10517;50.742;4.224;2022-12-18T09:27:35;-0.50;99.90
20712;DHT22;10517;50.742;4.224;2022-12-18T09:30:02;-0.40;99.90
20712;DHT22;10517;50.742;4.224;2022-12-18T09:32:28;-0.40;99.90
20712;DHT22;10517;50.742;4.224;2022-12-18T09:34:53;-0.40;99.90
20712;DHT22;10517;50.742;4.224;2022-12-18T09:37:19;-0.40;99.90
20712;DHT22;10517;50.742;4.224;2022-12-18T09:39:44;-0.40;99.90
20712;DHT22;10517;50.742;4.224;2022-12-18T09:42:20;-0.30;99.90
20712;DHT22;10517;50.742;4.224;2022-12-18T09:44:50;-0.30;99.90
20712;DHT22;10517;50.742;4.224;2022-12-18T09:47:33;-0.10;99.90
20712;DHT22;10517;50.742;4.224;2022-12-18T09:50:23;0.00;99.90
20712;DHT22;10517;50.742;4.224;2022-12-18T09:52:53;0.20;99.90
20712;DHT22;10517;50.742;4.224;2022-12-18T09:55:42;0.30;99.90
20712;DHT22;10517;50.742;4.224;2022-12-18T10:00:35;0.40;99.90
20712;DHT22;10517;50.742;4.224;2022-12-18T10:03:10;0.50;99.90
20712;DHT22;10517;50.742;4.224;2022-12-18T10:17:18;0.80;99.90
20712;DHT22;10517;50.742;4.224;2022-12-18T10:19:59;0.90;99.90
20712;DHT22;10517;50.742;4.224;2022-12-18T10:22:41;1.00;99.90
20712;DHT22;10517;50.742;4.224;2022-12-18T10:25:27;1.00;99.90
20712;DHT22;10517;50.742;4.224;2022-12-18T10:28:03;1.00;99.90
20712;DHT22;10517;50.742;4.224;2022-12-18T10:30:33;1.10;99.90
20712;DHT22;10517;50.742;4.224;2022-12-18T10:33:04;1.10;99.90
20712;DHT22;10517;50.742;4.224;2022-12-18T10:35:30;1.10;99.90
20712;DHT22;10517;50.742;4.224;2022-12-18T10:40:53;1.00;99.90
20712;DHT22;10517;50.742;4.224;2022-12-18T10:46:17;1.10;99.90
20712;DHT22;10517;50.742;4.224;2022-12-18T10:48:53;1.20;99.90
20712;DHT22;10517;50.742;4.224;2022-12-18T10:54:04;1.20;99.90
20712;DHT22;10517;50.742;4.224;2022-12-18T10:56:32;1.20;99.90
20712;DHT22;10517;50.742;4.224;2022-12-18T11:01:27;1.30;99.90
20712;DHT22;10517;50.742;4.224;2022-12-18T11:03:59;1.30;99.90
20712;DHT22;10517;50.742;4.224;2022-12-18T11:06:25;1.40;99.90
20712;DHT22;10517;50.742;4.224;2022-12-18T11:11:28;1.60;99.90
20712;DHT22;10517;50.742;4.224;2022-12-18T11:14:04;1.60;99.90
20712;DHT22;10517;50.742;4.224;2022-12-18T11:16:42;1.70;99.90
20712;DHT22;10517;50.742;4.224;2022-12-18T11:21:47;2.00;99.90
20712;DHT22;10517;50.742;4.224;2022-12-18T11:24:40;2.10;99.90
20712;DHT22;10517;50.742;4.224;2022-12-18T11:27:06;2.10;99.90
20712;DHT22;10517;50.742;4.224;2022-12-18T11:29:41;2.10;99.90
20712;DHT22;10517;50.742;4.224;2022-12-18T11:32:33;2.10;99.90
20712;DHT22;10517;50.742;4.224;2022-12-18T11:35:18;2.10;99.90
20712;DHT22;10517;50.742;4.224;2022-12-18T11:37:55;2.10;99.90
20712;DHT22;10517;50.742;4.224;2022-12-18T11:40:35;2.10;99.90
20712;DHT22;10517;50.742;4.224;2022-12-18T11:45:34;2.00;99.90
20712;DHT22;10517;50.742;4.224;2022-12-18T11:48:13;1.80;99.90
20712;DHT22;10517;50.742;4.224;2022-12-18T11:50:51;1.60;99.90
20712;DHT22;10517;50.742;4.224;2022-12-18T11:53:18;1.50;99.90
20712;DHT22;10517;50.742;4.224;2022-12-18T11:55:49;1.50;99.90
20712;DHT22;10517;50.742;4.224;2022-12-18T11:58:32;1.50;99.90
20712;DHT22;10517;50.742;4.224;2022-12-18T12:11:53;1.80;99.90
20712;DHT22;10517;50.742;4.224;2022-12-18T12:17:14;1.80;99.90
20712;DHT22;10517;50.742;4.224;2022-12-18T12:27:50;1.80;99.90
20712;DHT22;10517;50.742;4.224;2022-12-18T12:30:28;1.80;99.90
20712;DHT22;10517;50.742;4.224;2022-12-18T12:33:09;1.80;99.90
20712;DHT22;10517;50.742;4.224;2022-12-18T12:35:53;1.80;99.90
20712;DHT22;10517;50.742;4.224;2022-12-18T12:39:03;1.90;99.90
20712;DHT22;10517;50.742;4.224;2022-12-18T12:41:24;1.80;99.90
20712;DHT22;10517;50.742;4.224;2022-12-18T12:44:16;1.90;99.90
20712;DHT22;10517;50.742;4.224;2022-12-18T12:46:43;1.90;99.90
20712;DHT22;10517;50.742;4.224;2022-12-18T12:49:18;2.00;99.90
20712;DHT22;10517;50.742;4.224;2022-12-18T12:52:12;2.10;99.90
20712;DHT22;10517;50.742;4.224;2022-12-18T12:54:40;2.30;99.90
20712;DHT22;10517;50.742;4.224;2022-12-18T13:00:18;2.60;99.90
20712;DHT22;10517;50.742;4.224;2022-12-18T13:02:52;2.50;99.90
20712;DHT22;10517;50.742;4.224;2022-12-18T13:05:54;2.30;99.90
20712;DHT22;10517;50.742;4.224;2022-12-18T13:08:28;2.20;99.90
20712;DHT22;10517;50.742;4.224;2022-12-18T13:10:55;2.20;99.90
20712;DHT22;10517;50.742;4.224;2022-12-18T13:13:54;2.10;99.90
20712;DHT22;10517;50.742;4.224;2022-12-18T13:16:24;2.00;99.90
20712;DHT22;10517;50.742;4.224;2022-12-18T13:18:52;2.00;99.90
20712;DHT22;10517;50.742;4.224;2022-12-18T13:21:29;2.00;99.90
20712;DHT22;10517;50.742;4.224;2022-12-18T13:23:56;1.90;99.90
20712;DHT22;10517;50.742;4.224;2022-12-18T13:34:21;1.90;99.90
20712;DHT22;10517;50.742;4.224;2022-12-18T13:36:47;1.90;99.90
20712;DHT22;10517;50.742;4.224;2022-12-18T13:44:37;1.80;99.90
20712;DHT22;10517;50.742;4.224;2022-12-18T13:47:25;1.80;99.90
20712;DHT22;10517;50.742;4.224;2022-12-18T13:49:51;1.70;99.90
20712;DHT22;10517;50.742;4.224;2022-12-18T13:52:22;1.60;99.90
20712;DHT22;10517;50.742;4.224;2022-12-18T13:55:00;1.70;99.90
20712;DHT22;10517;50.742;4.224;2022-12-18T13:57:37;1.70;99.90
20712;DHT22;10517;50.742;4.224;2022-12-18T14:00:26;1.70;99.90
20712;DHT22;10517;50.742;4.224;2022-12-18T14:02:53;1.70;99.90
20712;DHT22;10517;50.742;4.224;2022-12-18T14:05:25;1.80;99.90
20712;DHT22;10517;50.742;4.224;2022-12-18T14:07:52;1.80;99.90
20712;DHT22;10517;50.742;4.224;2022-12-18T14:10:19;1.90;99.90
20712;DHT22;10517;50.742;4.224;2022-12-18T14:12:47;2.00;99.90
20712;DHT22;10517;50.742;4.224;2022-12-18T14:17:58;1.90;99.90
20712;DHT22;10517;50.742;4.224;2022-12-18T14:20:25;1.90;99.90
20712;DHT22;10517;50.742;4.224;2022-12-18T14:22:51;1.80;99.90
20712;DHT22;10517;50.742;4.224;2022-12-18T14:25:23;1.80;99.90
20712;DHT22;10517;50.742;4.224;2022-12-18T14:30:38;1.70;99.90
20712;DHT22;10517;50.742;4.224;2022-12-18T14:35:35;1.70;99.90
20712;DHT22;10517;50.742;4.224;2022-12-18T14:38:24;1.70;99.90
20712;DHT22;10517;50.742;4.224;2022-12-18T14:40:55;1.80;99.90
20712;DHT22;10517;50.742;4.224;2022-12-18T14:43:21;1.90;99.90
20712;DHT22;10517;50.742;4.224;2022-12-18T14:45:47;1.90;99.90
20712;DHT22;10517;50.742;4.224;2022-12-18T14:48:40;1.90;99.90
20712;DHT22;10517;50.742;4.224;2022-12-18T14:53:42;1.80;99.90
20712;DHT22;10517;50.742;4.224;2022-12-18T14:56:18;1.80;99.90
20712;DHT22;10517;50.742;4.224;2022-12-18T14:58:50;1.90;99.90
20712;DHT22;10517;50.742;4.224;2022-12-18T15:01:23;1.90;99.90
20712;DHT22;10517;50.742;4.224;2022-12-18T15:03:50;2.00;99.90
20712;DHT22;10517;50.742;4.224;2022-12-18T15:06:35;2.00;99.90
20712;DHT22;10517;50.742;4.224;2022-12-18T15:09:05;2.00;99.90
20712;DHT22;10517;50.742;4.224;2022-12-18T15:14:22;1.90;99.90
20712;DHT22;10517;50.742;4.224;2022-12-18T15:16:53;1.80;99.90
20712;DHT22;10517;50.742;4.224;2022-12-18T15:19:21;1.80;99.90
20712;DHT22;10517;50.742;4.224;2022-12-18T15:21:47;1.80;99.90
20712;DHT22;10517;50.742;4.224;2022-12-18T15:24:20;1.70;99.90
20712;DHT22;10517;50.742;4.224;2022-12-18T15:26:46;1.80;99.90
20712;DHT22;10517;50.742;4.224;2022-12-18T15:29:22;1.90;99.90
20712;DHT22;10517;50.742;4.224;2022-12-18T15:32:05;1.90;99.90
20712;DHT22;10517;50.742;4.224;2022-12-18T15:34:40;1.80;99.90
20712;DHT22;10517;50.742;4.224;2022-12-18T15:37:07;1.70;99.90
20712;DHT22;10517;50.742;4.224;2022-12-18T15:39:33;1.70;99.90
20712;DHT22;10517;50.742;4.224;2022-12-18T15:42:01;1.70;99.90
20712;DHT22;10517;50.742;4.224;2022-12-18T15:44:56;1.70;99.90
20712;DHT22;10517;50.742;4.224;2022-12-18T15:47:21;1.70;99.90
20712;DHT22;10517;50.742;4.224;2022-12-18T15:49:47;1.60;99.90
20712;DHT22;10517;50.742;4.224;2022-12-18T15:52:13;1.70;99.90
20712;DHT22;10517;50.742;4.224;2022-12-18T15:54:39;1.70;99.90
20712;DHT22;10517;50.742;4.224;2022-12-18T15:57:23;1.60;99.90
20712;DHT22;10517;50.742;4.224;2022-12-18T15:59:50;1.70;99.90
20712;DHT22;10517;50.742;4.224;2022-12-18T16:02:17;1.70;99.90
20712;DHT22;10517;50.742;4.224;2022-12-18T16:04:43;1.80;99.90
20712;DHT22;10517;50.742;4.224;2022-12-18T16:07:09;1.80;99.90
20712;DHT22;10517;50.742;4.224;2022-12-18T16:09:35;1.80;99.90
20712;DHT22;10517;50.742;4.224;2022-12-18T16:12:01;1.70;99.90
20712;DHT22;10517;50.742;4.224;2022-12-18T16:14:29;1.70;99.90
20712;DHT22;10517;50.742;4.224;2022-12-18T16:17:00;1.60;99.90
20712;DHT22;10517;50.742;4.224;2022-12-18T16:19:27;1.60;99.90
20712;DHT22;10517;50.742;4.224;2022-12-18T16:21:55;1.60;99.90
20712;DHT22;10517;50.742;4.224;2022-12-18T16:24:30;1.70;99.90
20712;DHT22;10517;50.742;4.224;2022-12-18T16:26:57;1.70;99.90
20712;DHT22;10517;50.742;4.224;2022-12-18T16:29:25;1.80;99.90
20712;DHT22;10517;50.742;4.224;2022-12-18T16:32:01;1.90;99.90
20712;DHT22;10517;50.742;4.224;2022-12-18T16:34:30;1.90;99.90
20712;DHT22;10517;50.742;4.224;2022-12-18T16:36:57;1.90;99.90
20712;DHT22;10517;50.742;4.224;2022-12-18T16:39:23;2.00;99.90
20712;DHT22;10517;50.742;4.224;2022-12-18T16:41:49;2.00;99.90
20712;DHT22;10517;50.742;4.224;2022-12-18T16:44:15;2.00;99.90
20712;DHT22;10517;50.742;4.224;2022-12-18T16:46:41;2.00;99.90
20712;DHT22;10517;50.742;4.224;2022-12-18T16:49:08;2.10;99.90
20712;DHT22;10517;50.742;4.224;2022-12-18T16:51:35;2.20;99.90
20712;DHT22;10517;50.742;4.224;2022-12-18T16:54:01;2.20;99.90
20712;DHT22;10517;50.742;4.224;2022-12-18T16:56:26;2.10;99.90
20712;DHT22;10517;50.742;4.224;2022-12-18T16:58:58;2.10;99.90
20712;DHT22;10517;50.742;4.224;2022-12-18T17:01:25;2.00;99.90
20712;DHT22;10517;50.742;4.224;2022-12-18T17:03:56;2.10;99.90
20712;DHT22;10517;50.742;4.224;2022-12-18T17:06:23;2.20;99.90
20712;DHT22;10517;50.742;4.224;2022-12-18T17:08:55;2.30;99.90
20712;DHT22;10517;50.742;4.224;2022-12-18T17:11:23;2.30;99.90
20712;DHT22;10517;50.742;4.224;2022-12-18T17:13:49;2.20;99.90
20712;DHT22;10517;50.742;4.224;2022-12-18T17:16:14;2.30;99.90
20712;DHT22;10517;50.742;4.224;2022-12-18T17:18:42;2.30;99.90
20712;DHT22;10517;50.742;4.224;2022-12-18T17:21:09;2.40;99.90
20712;DHT22;10517;50.742;4.224;2022-12-18T17:23:35;2.40;99.90
20712;DHT22;10517;50.742;4.224;2022-12-18T17:26:03;2.30;99.90
20712;DHT22;10517;50.742;4.224;2022-12-18T17:28:29;2.40;99.90
20712;DHT22;10517;50.742;4.224;2022-12-18T17:30:55;2.30;99.90
20712;DHT22;10517;50.742;4.224;2022-12-18T17:33:22;2.40;99.90
20712;DHT22;10517;50.742;4.224;2022-12-18T17:35:48;2.30;99.90
20712;DHT22;10517;50.742;4.224;2022-12-18T17:38:13;2.30;99.90
20712;DHT22;10517;50.742;4.224;2022-12-18T17:40:39;2.30;99.90
20712;DHT22;10517;50.742;4.224;2022-12-18T17:43:06;2.20;99.90